Time;durP1;ratioP1;P1;durP2;ratioP2;P2;SDS_P1;SDS_P2;PMS_P1;PMS_P2;Temp;Humidity;BMP_temperature;BMP_pressure;BME280_temperature;BME280_humidity;BME280_pressure;Samples;Min_cycle;Max_cycle;Signal;HPM_P1;HPM_P2
2022/08/11 00:00:12;;;;;;;5.80;3.90;;;24.40;42.60;;;;;;5083941;28;20527;-45
2022/08/11 00:02:51;;;;;;;7.10;4.03;;;24.50;42.50;;;;;;5081161;28;20459;-45
2022/08/11 00:05:20;;;;;;;3.80;3.50;;;24.40;42.40;;;;;;5064962;28;20488;-45
2022/08/11 00:07:52;;;;;;;3.87;3.33;;;24.40;42.70;;;;;;5068938;28;20467;-45
2022/08/11 00:10:25;;;;;;;5.07;4.20;;;24.30;42.70;;;;;;5083285;28;20456;-45
2022/08/11 00:12:59;;;;;;;4.60;3.60;;;24.30;42.80;;;;;;5085079;28;20456;-45
2022/08/11 00:15:35;;;;;;;3.53;3.33;;;24.10;43.10;;;;;;5080074;28;20484;-45
2022/08/11 00:18:02;;;;;;;4.80;3.90;;;24.10;44.40;;;;;;5084941;28;20456;-45
2022/08/11 00:20:32;;;;;;;3.87;3.50;;;24.10;43.80;;;;;;5083606;28;20453;-45
2022/08/11 00:23:05;;;;;;;4.47;4.07;;;24.10;44.40;;;;;;5065185;28;20626;-45
2022/08/11 00:25:41;;;;;;;4.67;4.13;;;24.10;44.90;;;;;;5083205;28;20499;-45
2022/08/11 00:28:30;;;;;;;4.30;3.40;;;24.00;44.50;;;;;;5087948;28;20941;-45
2022/08/11 00:31:07;;;;;;;3.93;3.63;;;24.00;44.70;;;;;;5082637;28;20455;-45
2022/08/11 00:33:40;;;;;;;4.67;3.70;;;23.90;45.00;;;;;;5064582;28;20978;-45
2022/08/11 00:36:14;;;;;;;3.97;3.67;;;23.90;44.70;;;;;;5086586;28;20435;-45
2022/08/11 00:38:44;;;;;;;4.67;4.00;;;23.90;45.00;;;;;;5069469;28;21004;-45
2022/08/11 00:41:10;;;;;;;5.57;4.67;;;23.80;45.20;;;;;;5063377;28;21005;-45
2022/08/11 00:43:52;;;;;;;4.60;4.30;;;23.80;45.20;;;;;;5080617;28;20468;-45
2022/08/11 00:46:36;;;;;;;4.80;3.80;;;23.70;45.40;;;;;;5085753;28;20475;-45
2022/08/11 00:49:22;;;;;;;4.57;4.17;;;23.70;45.30;;;;;;5080938;28;20957;-45
2022/08/11 00:52:20;;;;;;;4.90;4.50;;;23.60;45.90;;;;;;5084987;28;20467;-45
2022/08/11 00:54:58;;;;;;;4.43;3.83;;;23.50;45.60;;;;;;5082720;28;20455;-45
2022/08/11 00:57:52;;;;;;;4.30;3.87;;;23.50;46.00;;;;;;5076666;28;20837;-45
2022/08/11 01:00:22;;;;;;;4.57;4.17;;;23.40;45.90;;;;;;5069586;28;20460;-45
2022/08/11 01:03:17;;;;;;;4.60;4.20;;;23.40;46.10;;;;;;5074215;28;21022;-45
2022/08/11 01:06:22;;;;;;;3.90;3.60;;;23.40;46.50;;;;;;5083859;28;20495;-45
2022/08/11 01:09:10;;;;;;;4.90;4.40;;;23.20;46.70;;;;;;5029193;28;20542;-45
2022/08/11 01:12:17;;;;;;;4.43;4.03;;;23.20;46.20;;;;;;5076472;28;20468;-45
2022/08/11 01:15:32;;;;;;;5.50;3.97;;;23.00;46.60;;;;;;5081825;28;20460;-45
2022/08/11 01:18:21;;;;;;;5.63;3.83;;;22.90;46.50;;;;;;5080966;28;20835;-45
2022/08/11 01:21:16;;;;;;;4.37;3.97;;;22.70;46.80;;;;;;5085150;28;20467;-45
2022/08/11 01:24:04;;;;;;;3.97;3.57;;;22.60;47.10;;;;;;5067875;28;20468;-45
2022/08/11 01:27:11;;;;;;;7.70;4.23;;;22.50;47.10;;;;;;5089207;28;20461;-46
2022/08/11 01:30:19;;;;;;;4.17;3.87;;;22.30;47.70;;;;;;5086426;28;20452;-45
2022/08/11 01:33:10;;;;;;;4.70;3.47;;;22.10;47.70;;;;;;5087947;28;20875;-45
2022/08/11 01:36:41;;;;;;;4.20;3.90;;;22.00;48.10;;;;;;5087506;28;20468;-45
2022/08/11 01:39:46;;;;;;;4.97;3.73;;;21.80;48.70;;;;;;5069953;28;20468;-45
2022/08/11 01:45:54;;;;;;;4.83;3.77;;;21.50;48.60;;;;;;5088382;28;20484;-45
2022/08/11 01:48:39;;;;;;;5.23;4.70;;;21.50;49.20;;;;;;5087169;28;20654;-45
2022/08/11 01:51:35;;;;;;;4.67;4.20;;;21.30;49.50;;;;;;5066188;28;20464;-45
2022/08/11 01:54:19;;;;;;;6.13;4.37;;;21.20;49.80;;;;;;5073093;28;20975;-45
2022/08/11 01:56:59;;;;;;;4.77;4.37;;;21.00;50.30;;;;;;5072458;28;20488;-45
2022/08/11 01:59:36;;;;;;;3.90;3.60;;;21.10;50.00;;;;;;5086826;28;20464;-45
2022/08/11 02:02:47;;;;;;;4.90;4.50;;;21.00;50.30;;;;;;5072474;28;20453;-45
2022/08/11 02:05:44;;;;;;;4.50;4.10;;;21.00;50.20;;;;;;5085133;28;21005;-45
2022/08/11 02:08:43;;;;;;;4.90;4.60;;;20.90;50.20;;;;;;5091226;28;20472;-45
2022/08/11 02:11:35;;;;;;;4.30;4.00;;;20.80;50.70;;;;;;5075353;28;20469;-45
2022/08/11 02:14:12;;;;;;;4.90;4.17;;;20.80;51.00;;;;;;5078169;28;20464;-45
2022/08/11 02:17:01;;;;;;;5.93;4.17;;;20.70;51.20;;;;;;5080170;28;21014;-45
2022/08/11 02:26:26;;;;;;;5.90;4.60;;;20.80;50.80;;;;;;5071841;28;20480;-45
2022/08/11 02:29:12;;;;;;;5.10;4.50;;;20.70;51.20;;;;;;5081142;28;20452;-45
2022/08/11 02:35:01;;;;;;;5.07;4.57;;;20.60;51.10;;;;;;5090231;28;21018;-45
2022/08/11 02:37:30;;;;;;;5.20;3.97;;;20.60;51.50;;;;;;5086629;28;20840;-45
2022/08/11 02:39:57;;;;;;;4.97;4.57;;;20.50;51.80;;;;;;5089221;28;20945;-45
2022/08/11 02:42:47;;;;;;;5.67;4.30;;;20.60;51.70;;;;;;5088277;28;20465;-45
2022/08/11 02:45:30;;;;;;;5.67;5.17;;;20.60;51.20;;;;;;5084176;28;20485;-45
2022/08/11 02:50:53;;;;;;;5.60;4.60;;;20.60;51.60;;;;;;5086879;28;20463;-45
2022/08/11 02:53:50;;;;;;;6.93;5.10;;;20.60;51.60;;;;;;5092209;28;20825;-45
2022/08/11 02:56:51;;;;;;;4.47;4.07;;;20.50;52.10;;;;;;5083804;28;20455;-47
2022/08/11 02:59:51;;;;;;;5.30;4.20;;;20.40;52.00;;;;;;5084792;28;20467;-47
2022/08/11 03:02:30;;;;;;;6.00;4.37;;;20.30;52.10;;;;;;5085677;28;20465;-46
2022/08/11 03:05:10;;;;;;;5.40;4.10;;;20.20;52.50;;;;;;5082613;28;20492;-46
2022/08/11 03:08:07;;;;;;;4.90;4.50;;;20.10;52.80;;;;;;5085141;28;20846;-47
2022/08/11 03:16:59;;;;;;;4.17;3.77;;;19.90;53.50;;;;;;5081145;28;20832;-46
2022/08/11 03:19:58;;;;;;;5.20;4.80;;;19.90;53.70;;;;;;5076291;28;20462;-45
2022/08/11 03:22:33;;;;;;;5.47;4.30;;;19.80;53.90;;;;;;5081928;28;20458;-45
2022/08/11 03:25:18;;;;;;;5.67;4.63;;;19.60;53.80;;;;;;5080121;28;20507;-45
2022/08/11 03:27:56;;;;;;;15.83;4.73;;;19.40;54.70;;;;;;5084490;28;20464;-45
2022/08/11 03:30:40;;;;;;;4.87;4.47;;;19.40;54.70;;;;;;5062358;28;20926;-46
2022/08/11 03:36:36;;;;;;;4.20;3.83;;;19.30;54.90;;;;;;5085323;28;20805;-46
2022/08/11 03:40:03;;;;;;;4.73;4.33;;;19.30;54.90;;;;;;5073256;28;20448;-47
2022/08/11 03:42:45;;;;;;;5.03;4.60;;;19.30;55.30;;;;;;5066724;28;20779;-45
2022/08/11 03:45:34;;;;;;;5.63;4.80;;;19.40;54.90;;;;;;5068970;28;20500;-45
2022/08/11 03:48:21;;;;;;;5.93;4.13;;;19.30;55.50;;;;;;5084575;28;20468;-45
2022/08/11 03:51:06;;;;;;;5.43;4.30;;;19.20;55.20;;;;;;5083452;28;20465;-45
2022/08/11 03:53:59;;;;;;;5.40;4.60;;;19.10;55.30;;;;;;5072542;28;20452;-45
2022/08/11 03:56:47;;;;;;;7.07;4.87;;;19.20;55.20;;;;;;5084543;28;20461;-46
2022/08/11 03:59:27;;;;;;;5.80;5.17;;;19.30;55.10;;;;;;5064369;28;20463;-45
2022/08/11 04:02:18;;;;;;;5.47;4.97;;;19.40;54.70;;;;;;5084372;28;20467;-47
2022/08/11 04:05:33;;;;;;;4.87;4.47;;;19.40;54.50;;;;;;5083664;28;20750;-45
2022/08/11 04:08:23;;;;;;;5.73;5.17;;;19.40;54.90;;;;;;5047909;28;20460;-46
2022/08/11 04:11:27;;;;;;;9.27;5.03;;;19.40;55.10;;;;;;5068836;28;20452;-45
2022/08/11 04:17:35;;;;;;;5.27;4.87;;;19.20;55.90;;;;;;5082777;28;20503;-45
2022/08/11 04:20:28;;;;;;;5.27;4.87;;;19.20;56.40;;;;;;5082490;28;20845;-47
2022/08/11 04:23:45;;;;;;;5.73;5.33;;;19.10;56.10;;;;;;5052256;28;20461;-46
2022/08/11 04:26:49;;;;;;;5.17;4.67;;;19.00;56.60;;;;;;5059151;28;21053;-46
2022/08/11 04:29:45;;;;;;;5.70;4.97;;;19.00;56.60;;;;;;5084061;28;20967;-47
2022/08/11 04:33:10;;;;;;;5.60;5.10;;;19.00;56.50;;;;;;5085575;28;20465;-45
2022/08/11 04:36:08;;;;;;;5.83;5.33;;;19.10;56.20;;;;;;5084955;28;20525;-46
2022/08/11 04:39:13;;;;;;;5.23;4.83;;;19.00;56.40;;;;;;5083168;28;20452;-47
2022/08/11 04:45:05;;;;;;;10.43;4.70;;;19.00;56.60;;;;;;5084176;28;20456;-46
2022/08/11 05:03:29;;;;;;;7.60;5.00;;;19.30;56.60;;;;;;5086059;28;20949;-47
2022/08/11 05:06:28;;;;;;;7.87;4.77;;;19.40;56.20;;;;;;5086394;28;20988;-47
2022/08/11 05:09:45;;;;;;;6.67;5.33;;;19.50;56.40;;;;;;5053236;28;20506;-47
2022/08/11 05:12:35;;;;;;;9.10;5.23;;;19.50;57.20;;;;;;5056470;28;20464;-47
2022/08/11 05:35:42;;;;;;;7.90;5.13;;;19.90;57.50;;;;;;5086005;28;20461;-47
2022/08/11 05:58:37;;;;;;;6.97;6.10;;;20.50;56.60;;;;;;5077241;28;20481;-47
2022/08/11 06:01:19;;;;;;;6.00;5.20;;;20.60;57.00;;;;;;5086019;28;20495;-47
2022/08/11 06:06:50;;;;;;;6.47;4.90;;;20.80;54.10;;;;;;5079722;28;20928;-47
2022/08/11 06:09:47;;;;;;;9.33;4.47;;;21.00;55.10;;;;;;5057005;28;20456;-47
2022/08/11 06:12:24;;;;;;;4.73;4.33;;;21.10;54.70;;;;;;5077011;28;20442;-47
2022/08/11 06:14:56;;;;;;;5.87;4.40;;;21.30;54.20;;;;;;5085159;28;20463;-44
2022/08/11 06:17:27;;;;;;;4.90;4.40;;;21.40;54.30;;;;;;5086981;28;20828;-45
2022/08/11 06:20:11;;;;;;;4.17;3.87;;;21.50;53.50;;;;;;5075082;28;20460;-45
2022/08/11 06:22:42;;;;;;;3.90;3.60;;;21.60;52.60;;;;;;5088032;28;20445;-45
2022/08/11 06:25:11;;;;;;;4.37;4.00;;;21.70;52.30;;;;;;5062816;28;20456;-45
2022/08/11 06:27:43;;;;;;;4.50;4.10;;;21.90;51.40;;;;;;5066799;28;20898;-45
2022/08/11 06:30:12;;;;;;;4.60;3.70;;;21.90;49.60;;;;;;5070577;28;20463;-47
2022/08/11 06:32:44;;;;;;;4.43;4.00;;;22.10;49.60;;;;;;5083188;28;20549;-47
2022/08/11 06:35:48;;;;;;;6.40;4.40;;;22.20;49.90;;;;;;5086541;28;20460;-46
2022/08/11 06:38:43;;;;;;;4.10;3.70;;;22.40;50.90;;;;;;5084985;28;20483;-47
2022/08/11 06:41:29;;;;;;;4.50;3.70;;;22.60;50.00;;;;;;5088090;28;20456;-46
2022/08/11 06:44:17;;;;;;;4.70;3.97;;;22.60;48.70;;;;;;5092954;28;20822;-47
2022/08/11 06:46:50;;;;;;;4.30;4.00;;;22.80;48.60;;;;;;5086033;28;20495;-47
2022/08/11 06:52:13;;;;;;;4.10;3.60;;;23.00;47.30;;;;;;5084616;28;20961;-47
2022/08/11 06:55:14;;;;;;;3.83;3.53;;;23.10;46.90;;;;;;5080135;28;20482;-47
2022/08/11 07:00:53;;;;;;;4.70;4.30;;;23.40;46.40;;;;;;5086624;28;20467;-45
2022/08/11 07:03:21;;;;;;;3.43;3.10;;;23.50;46.50;;;;;;5086432;28;20448;-45
2022/08/11 07:06:06;;;;;;;4.33;3.20;;;23.50;46.50;;;;;;5074009;28;20491;-45
2022/08/11 07:17:21;;;;;;;4.17;3.77;;;23.90;45.90;;;;;;5085764;28;20799;-45
2022/08/11 07:31:16;;;;;;;5.20;4.23;;;24.30;45.60;;;;;;5083185;28;20456;-46
2022/08/11 07:33:59;;;;;;;4.07;3.67;;;24.40;45.20;;;;;;5085439;28;20991;-46
2022/08/11 07:36:43;;;;;;;3.43;3.13;;;24.40;45.00;;;;;;5069078;28;20539;-46
2022/08/11 07:39:24;;;;;;;3.27;2.97;;;24.50;44.90;;;;;;5083792;28;20460;-45
2022/08/11 07:41:53;;;;;;;8.00;3.63;;;24.50;45.10;;;;;;5078554;28;20469;-45
2022/08/11 07:44:24;;;;;;;3.13;2.93;;;24.60;45.00;;;;;;5084620;28;21013;-45
2022/08/11 07:52:36;;;;;;;3.90;3.50;;;25.00;44.50;;;;;;5073198;28;20460;-45
2022/08/11 07:55:05;;;;;;;3.57;3.23;;;25.10;44.50;;;;;;5086225;28;20839;-45
2022/08/11 08:20:41;;;;;;;4.90;3.70;;;26.20;42.60;;;;;;5083467;28;20509;-44
2022/08/11 08:23:08;;;;;;;6.40;3.60;;;26.30;42.10;;;;;;5080258;28;20456;-44
2022/08/11 08:25:38;;;;;;;3.73;3.47;;;26.40;41.80;;;;;;5085057;28;20455;-44
2022/08/11 08:28:12;;;;;;;3.90;3.60;;;26.50;42.20;;;;;;5077779;28;21268;-44
2022/08/11 08:30:46;;;;;;;3.53;3.10;;;26.60;42.20;;;;;;5083409;28;20455;-44
2022/08/11 08:33:23;;;;;;;3.77;3.47;;;26.60;42.00;;;;;;5066848;28;20453;-44
2022/08/11 08:36:10;;;;;;;5.07;3.40;;;26.70;41.20;;;;;;5085525;28;21052;-45
2022/08/11 08:38:51;;;;;;;4.53;3.40;;;26.90;41.50;;;;;;5084430;28;20466;-44
2022/08/11 08:41:31;;;;;;;3.53;3.23;;;27.00;41.50;;;;;;5087589;28;20472;-45
2022/08/11 08:44:06;;;;;;;4.10;3.63;;;27.10;41.00;;;;;;5087080;28;20471;-44
2022/08/11 08:46:55;;;;;;;4.57;4.07;;;27.10;40.90;;;;;;5076987;28;20473;-45
2022/08/11 08:49:30;;;;;;;4.17;3.50;;;27.20;40.90;;;;;;5067222;28;20464;-45
2022/08/11 08:52:01;;;;;;;3.63;3.10;;;27.30;41.30;;;;;;5085504;28;20574;-44
2022/08/11 08:54:54;;;;;;;4.30;3.90;;;27.40;41.30;;;;;;5087197;28;20761;-45
2022/08/11 08:57:27;;;;;;;7.53;3.70;;;27.60;40.80;;;;;;5084814;28;20486;-44
2022/08/11 08:59:56;;;;;;;3.40;3.10;;;27.60;40.20;;;;;;5067827;28;20456;-45
2022/08/11 09:02:27;;;;;;;3.57;3.27;;;27.70;40.60;;;;;;5071167;28;20451;-45
2022/08/11 09:05:03;;;;;;;3.97;3.63;;;27.80;40.20;;;;;;5069064;28;20466;-45
2022/08/11 09:07:31;;;;;;;4.53;3.50;;;27.90;40.20;;;;;;5075352;28;20734;-45
2022/08/11 09:10:06;;;;;;;4.77;3.73;;;28.00;39.70;;;;;;5086017;28;20201;-45
2022/08/11 09:12:34;;;;;;;4.57;3.40;;;28.00;39.40;;;;;;5088117;28;20969;-45
2022/08/11 09:15:07;;;;;;;6.20;3.37;;;28.20;39.30;;;;;;5062726;28;20547;-45
2022/08/11 09:17:45;;;;;;;5.10;3.00;;;28.20;39.30;;;;;;5083019;28;20671;-45
2022/08/11 09:20:24;;;;;;;3.43;3.20;;;28.40;39.30;;;;;;5086493;28;20220;-45
2022/08/11 09:28:57;;;;;;;3.30;3.00;;;28.50;38.70;;;;;;5085502;28;20206;-45
2022/08/11 09:31:25;;;;;;;6.70;4.20;;;28.70;38.30;;;;;;5084915;28;20206;-45
2022/08/11 09:33:54;;;;;;;6.90;3.37;;;28.70;38.60;;;;;;5084581;28;20755;-45
2022/08/11 09:42:02;;;;;;;5.57;3.47;;;28.80;38.30;;;;;;5083809;28;20261;-45
2022/08/11 09:44:48;;;;;;;7.13;3.53;;;28.90;38.10;;;;;;5087339;28;20201;-45
2022/08/11 09:47:24;;;;;;;3.63;3.33;;;29.20;38.20;;;;;;5083082;28;20221;-45
2022/08/11 09:49:58;;;;;;;3.80;3.20;;;29.30;37.70;;;;;;5071091;28;20232;-45
2022/08/11 09:52:28;;;;;;;4.83;3.40;;;29.30;37.10;;;;;;5082106;28;20229;-45
2022/08/11 09:54:55;;;;;;;4.20;3.30;;;29.20;37.10;;;;;;5056713;28;20206;-45
2022/08/11 10:00:11;;;;;;;3.80;3.50;;;29.20;36.70;;;;;;5074784;28;20666;-45
2022/08/11 10:02:46;;;;;;;4.00;3.00;;;29.30;36.90;;;;;;5075652;28;20265;-45
2022/08/11 10:08:10;;;;;;;7.50;3.23;;;29.70;37.00;;;;;;5070725;28;20225;-45
2022/08/11 10:10:40;;;;;;;4.05;2.95;;;29.70;35.60;;;;;;5085137;28;20293;-45
2022/08/11 10:13:19;;;;;;;3.88;2.83;;;29.70;35.70;;;;;;5088950;28;20217;-45
2022/08/11 10:16:09;;;;;;;7.60;3.15;;;29.90;35.80;;;;;;5089657;28;20210;-45
2022/08/11 10:18:51;;;;;;;2.53;2.33;;;30.30;35.00;;;;;;5076730;28;20213;-45
2022/08/11 10:21:42;;;;;;;3.05;2.75;;;30.50;34.70;;;;;;5083773;28;20206;-45
2022/08/11 10:27:14;;;;;;;4.00;2.80;;;30.10;34.50;;;;;;5087277;28;20225;-46
2022/08/11 10:35:28;;;;;;;3.33;2.80;;;30.10;34.70;;;;;;5067613;28;20208;-44
2022/08/11 10:37:56;;;;;;;2.92;2.70;;;30.10;34.90;;;;;;5070873;28;20607;-44
2022/08/11 10:40:38;;;;;;;3.00;2.80;;;30.00;34.80;;;;;;5088305;28;20237;-44
2022/08/11 10:43:11;;;;;;;3.25;2.95;;;29.80;35.30;;;;;;5087586;28;20210;-44
2022/08/11 10:48:30;;;;;;;3.53;3.22;;;29.70;35.20;;;;;;5088953;28;20233;-44
2022/08/11 10:51:13;;;;;;;6.18;3.30;;;29.60;35.30;;;;;;5061928;28;20202;-44
2022/08/11 10:59:23;;;;;;;8.00;3.00;;;29.60;35.10;;;;;;5081775;28;20682;-44
2022/08/11 11:01:52;;;;;;;3.83;2.90;;;29.40;35.50;;;;;;5065302;28;20293;-44
2022/08/11 11:04:39;;;;;;;5.18;3.38;;;29.60;35.40;;;;;;5056841;28;20210;-44
2022/08/11 11:07:30;;;;;;;3.67;3.13;;;29.40;34.80;;;;;;5086760;28;20347;-44
2022/08/11 11:10:03;;;;;;;4.20;3.07;;;29.40;35.30;;;;;;5030524;28;20213;-44
2022/08/11 11:18:15;;;;;;;3.33;3.03;;;29.20;35.80;;;;;;5082513;28;20592;-44
2022/08/11 11:20:45;;;;;;;3.37;3.07;;;29.10;35.80;;;;;;5086666;28;20257;-44
2022/08/11 11:23:22;;;;;;;3.60;3.30;;;29.00;36.00;;;;;;5064442;28;20225;-44
2022/08/11 11:26:23;;;;;;;3.27;3.07;;;29.10;35.70;;;;;;5075711;28;20256;-45
2022/08/11 11:29:11;;;;;;;3.83;3.17;;;29.00;35.70;;;;;;5082442;28;20198;-45
2022/08/11 11:32:00;;;;;;;4.10;3.10;;;29.00;35.50;;;;;;5082262;28;20204;-45
2022/08/11 11:35:02;;;;;;;3.30;3.00;;;29.00;34.90;;;;;;5077979;28;20211;-45
2022/08/11 11:37:35;;;;;;;5.90;3.23;;;28.90;35.30;;;;;;5075045;28;20210;-45
2022/08/11 11:40:11;;;;;;;3.57;3.27;;;28.80;35.10;;;;;;5069495;28;20213;-45
2022/08/11 11:42:44;;;;;;;6.67;3.67;;;28.80;35.30;;;;;;5066933;28;20209;-45
2022/08/11 11:45:15;;;;;;;3.47;3.20;;;28.90;35.50;;;;;;5082439;28;20259;-45
2022/08/11 11:47:53;;;;;;;3.00;2.80;;;28.90;35.60;;;;;;5087490;28;20235;-45
2022/08/11 11:50:25;;;;;;;4.97;3.37;;;29.00;34.60;;;;;;5078730;28;20225;-45
2022/08/11 11:53:00;;;;;;;3.63;3.23;;;28.90;35.10;;;;;;5069234;28;20238;-45
2022/08/11 11:55:28;;;;;;;4.23;3.20;;;29.00;35.10;;;;;;5052304;28;20260;-45
2022/08/11 12:03:33;;;;;;;4.70;3.37;;;28.90;34.70;;;;;;5078553;28;20214;-45
2022/08/11 12:06:02;;;;;;;4.23;3.83;;;28.90;34.90;;;;;;5062320;28;20588;-45
2022/08/11 12:08:30;;;;;;;3.53;2.80;;;28.80;34.10;;;;;;5082859;28;20224;-45
2022/08/11 12:13:59;;;;;;;3.80;2.83;;;28.90;34.70;;;;;;5083240;28;20694;-44
2022/08/11 12:16:26;;;;;;;3.60;3.30;;;28.90;34.70;;;;;;5082093;28;20210;-44
2022/08/11 12:19:07;;;;;;;5.30;2.70;;;28.90;34.80;;;;;;5078526;28;20213;-45
2022/08/11 12:21:36;;;;;;;3.37;3.07;;;28.90;34.20;;;;;;5062388;28;20217;-45
2022/08/11 12:30:04;;;;;;;4.32;3.00;;;28.90;34.50;;;;;;5080931;28;20209;-45
2022/08/11 12:32:35;;;;;;;3.43;3.00;;;29.00;34.70;;;;;;5080069;28;20217;-45
2022/08/11 12:35:04;;;;;;;3.83;3.45;;;29.10;34.70;;;;;;5073710;28;20209;-44
2022/08/11 12:37:35;;;;;;;3.40;3.10;;;29.10;34.50;;;;;;5084111;28;20299;-45
2022/08/11 12:46:09;;;;;;;7.40;4.00;;;29.00;34.60;;;;;;5066777;28;20206;-45
2022/08/11 12:51:57;;;;;;;3.40;3.13;;;29.10;34.40;;;;;;5081699;28;20203;-45
2022/08/11 12:54:42;;;;;;;3.33;3.13;;;29.00;34.50;;;;;;5086465;28;20202;-45
2022/08/11 13:05:51;;;;;;;4.00;3.50;;;29.10;34.70;;;;;;5081920;28;20206;-45
2022/08/11 13:08:22;;;;;;;7.50;4.27;;;29.10;34.20;;;;;;5078589;28;20233;-45
2022/08/11 13:13:38;;;;;;;3.30;3.10;;;29.30;34.00;;;;;;5083133;28;20202;-44
2022/08/11 13:16:26;;;;;;;4.03;3.37;;;29.40;33.70;;;;;;5074066;28;20202;-45
2022/08/11 13:18:55;;;;;;;4.00;3.60;;;29.30;33.30;;;;;;5086256;28;20659;-45
2022/08/11 13:21:22;;;;;;;3.60;3.30;;;29.30;34.10;;;;;;5085338;28;20213;-45
2022/08/11 13:23:53;;;;;;;5.20;3.63;;;29.40;33.80;;;;;;5081592;28;20197;-45
2022/08/11 13:26:30;;;;;;;3.90;3.60;;;29.40;33.50;;;;;;5085225;28;20217;-45
2022/08/11 13:29:27;;;;;;;3.73;3.43;;;29.40;33.60;;;;;;5066963;28;20260;-45
2022/08/11 13:31:58;;;;;;;3.90;3.53;;;29.40;33.60;;;;;;5070637;28;20748;-45
2022/08/11 13:34:29;;;;;;;3.90;3.50;;;29.30;33.80;;;;;;5085661;28;20224;-45
2022/08/11 13:37:00;;;;;;;4.10;3.80;;;29.40;34.00;;;;;;5070038;28;20513;-45
2022/08/11 13:39:29;;;;;;;4.35;4.03;;;29.40;34.10;;;;;;5076643;28;20202;-45
2022/08/11 13:41:59;;;;;;;4.43;4.00;;;29.40;34.10;;;;;;5081340;28;20531;-45
2022/08/11 13:44:29;;;;;;;4.38;3.80;;;29.50;33.90;;;;;;5083126;28;20285;-45
2022/08/11 13:47:00;;;;;;;5.63;3.88;;;29.50;33.40;;;;;;5091219;28;20298;-47
2022/08/11 13:49:28;;;;;;;4.88;3.50;;;29.50;33.20;;;;;;5085753;28;20288;-47
2022/08/11 13:51:57;;;;;;;3.70;3.40;;;29.40;33.60;;;;;;5071884;28;20588;-47
2022/08/11 13:54:30;;;;;;;3.83;3.53;;;29.30;33.50;;;;;;5070718;28;20211;-47
2022/08/11 13:57:03;;;;;;;5.10;3.27;;;29.30;33.90;;;;;;5089533;28;20245;-47
2022/08/11 13:59:36;;;;;;;3.53;3.28;;;29.40;33.80;;;;;;5072516;28;20228;-47
2022/08/11 14:02:22;;;;;;;3.57;3.27;;;29.40;33.30;;;;;;5082896;28;20213;-47
2022/08/11 14:04:57;;;;;;;4.50;4.07;;;29.50;33.70;;;;;;5085001;28;20202;-46
2022/08/11 14:07:34;;;;;;;4.38;3.58;;;29.50;33.60;;;;;;5067993;28;20226;-47
2022/08/11 14:10:02;;;;;;;4.43;3.97;;;29.50;33.80;;;;;;5083109;28;20198;-47
2022/08/11 14:15:20;;;;;;;4.45;4.05;;;29.50;33.50;;;;;;5085516;28;20695;-47
2022/08/11 14:17:54;;;;;;;4.00;3.70;;;29.60;34.10;;;;;;5083435;28;20221;-47
2022/08/11 14:20:22;;;;;;;7.13;3.93;;;29.60;33.70;;;;;;5084621;28;20678;-47
2022/08/11 14:23:06;;;;;;;5.13;4.15;;;29.50;33.60;;;;;;5084084;28;20245;-48
2022/08/11 14:25:33;;;;;;;3.28;3.08;;;29.50;33.70;;;;;;5083053;28;20217;-47
2022/08/11 14:28:20;;;;;;;7.30;3.90;;;29.60;33.30;;;;;;5074198;28;20236;-47
2022/08/11 14:31:01;;;;;;;4.78;3.47;;;29.60;31.60;;;;;;5087923;28;20233;-47
2022/08/11 14:33:31;;;;;;;4.10;3.70;;;29.70;32.30;;;;;;5085087;28;20289;-47
2022/08/11 14:36:21;;;;;;;4.72;3.58;;;29.60;32.20;;;;;;5083194;28;20599;-47
2022/08/11 14:38:48;;;;;;;3.70;3.40;;;29.50;32.40;;;;;;5063767;28;20201;-47
2022/08/11 14:47:13;;;;;;;3.70;3.40;;;29.70;32.40;;;;;;5078889;28;20214;-47
2022/08/11 14:49:52;;;;;;;5.85;5.25;;;29.70;32.10;;;;;;5078627;28;20659;-47
2022/08/11 14:52:36;;;;;;;4.60;3.47;;;29.70;32.20;;;;;;5061273;28;20202;-47
2022/08/11 14:57:50;;;;;;;5.20;3.85;;;29.50;32.50;;;;;;5084761;28;20214;-46
2022/08/11 15:00:22;;;;;;;3.53;3.33;;;29.50;32.40;;;;;;5085986;28;20748;-47
2022/08/11 15:05:43;;;;;;;3.92;3.50;;;29.40;32.60;;;;;;5084872;28;20212;-48
2022/08/11 15:14:02;;;;;;;5.25;3.33;;;29.50;32.20;;;;;;5073739;28;20548;-48
2022/08/11 15:19:19;;;;;;;4.47;4.00;;;29.60;32.10;;;;;;5081097;28;20250;-48
2022/08/11 15:24:35;;;;;;;4.68;3.30;;;29.70;32.10;;;;;;5085444;28;20206;-48
2022/08/11 15:38:50;;;;;;;5.75;3.70;;;29.80;32.00;;;;;;5079234;28;20233;-48
2022/08/11 15:47:58;;;;;;;4.55;4.15;;;30.00;32.00;;;;;;5076605;28;20210;-48
2022/08/11 15:50:36;;;;;;;16.40;5.88;;;29.90;32.00;;;;;;5064406;28;20610;-48
2022/08/11 15:53:30;;;;;;;5.05;3.78;;;29.80;32.00;;;;;;5081393;28;20205;-48
2022/08/11 15:55:58;;;;;;;5.00;4.40;;;29.90;31.60;;;;;;5074527;28;20874;-48
2022/08/11 16:04:28;;;;;;;6.05;3.22;;;29.90;32.50;;;;;;5075053;28;20687;-48
2022/08/11 16:07:10;;;;;;;7.53;3.65;;;30.00;32.40;;;;;;5077492;28;20224;-48
2022/08/11 16:10:06;;;;;;;3.60;3.30;;;30.00;32.10;;;;;;5078129;28;20228;-48
2022/08/11 16:12:40;;;;;;;4.20;3.83;;;30.00;32.00;;;;;;5077573;28;20218;-48
2022/08/11 16:18:04;;;;;;;6.93;4.38;;;29.80;32.00;;;;;;5057976;28;20206;-48
2022/08/11 16:20:33;;;;;;;4.20;3.55;;;29.80;31.60;;;;;;5082597;28;20198;-48
2022/08/11 16:23:03;;;;;;;3.73;3.50;;;29.90;32.00;;;;;;5079265;28;22205;-48
2022/08/11 16:25:33;;;;;;;4.05;3.75;;;29.90;31.80;;;;;;5061903;28;20583;-48
2022/08/11 16:28:22;;;;;;;4.93;3.70;;;29.90;31.90;;;;;;5080645;28;20237;-48
2022/08/11 16:30:51;;;;;;;4.28;3.88;;;29.90;32.10;;;;;;5080123;28;20308;-48
2022/08/11 16:33:19;;;;;;;3.38;3.00;;;29.90;32.40;;;;;;5058581;28;20206;-48
2022/08/11 16:38:58;;;;;;;3.63;3.33;;;29.90;32.30;;;;;;5075159;28;20210;-48
2022/08/11 16:47:12;;;;;;;4.68;3.20;;;29.90;32.40;;;;;;5081675;28;20234;-48
2022/08/11 16:49:45;;;;;;;4.70;3.63;;;29.70;32.00;;;;;;5050832;28;20718;-48
2022/08/11 16:52:23;;;;;;;3.97;3.67;;;29.70;32.40;;;;;;5082185;28;20198;-48
2022/08/11 16:54:50;;;;;;;3.93;3.63;;;29.70;32.60;;;;;;5083126;28;20220;-48
2022/08/11 17:00:15;;;;;;;3.22;2.65;;;29.70;33.50;;;;;;5087975;28;20582;-48
2022/08/11 17:14:20;;;;;;;7.75;4.25;;;29.70;32.90;;;;;;5086098;28;20202;-48
2022/08/11 17:17:04;;;;;;;4.67;3.50;;;29.70;32.60;;;;;;5080341;28;20659;-48
2022/08/11 17:19:34;;;;;;;4.07;3.30;;;29.70;32.90;;;;;;5069552;28;20204;-48
2022/08/11 17:25:09;;;;;;;4.07;3.67;;;29.70;33.20;;;;;;5073106;28;20206;-48
2022/08/11 17:27:38;;;;;;;3.40;3.20;;;29.60;33.30;;;;;;5084623;28;20207;-48
2022/08/11 17:30:07;;;;;;;3.47;3.13;;;29.60;33.60;;;;;;5085767;28;20223;-48
2022/08/11 17:35:37;;;;;;;4.90;3.80;;;29.60;33.30;;;;;;5085400;28;20667;-48
2022/08/11 17:38:12;;;;;;;3.67;3.23;;;29.60;33.60;;;;;;5088778;28;20660;-48
2022/08/11 17:49:23;;;;;;;4.15;3.75;;;29.40;33.20;;;;;;5086876;28;20233;-48
2022/08/11 18:00:17;;;;;;;4.07;3.77;;;29.40;33.90;;;;;;5084001;28;20210;-48
2022/08/11 18:05:35;;;;;;;6.73;3.40;;;29.30;34.50;;;;;;5080177;28;20233;-47
